createdAt,value
2022-12-05T00:01:42.512Z,8.68
2022-12-05T00:04:12.553Z,8.85
2022-12-05T00:06:40.608Z,8.73
2022-12-05T00:09:09.387Z,8.70
2022-12-05T00:11:38.160Z,8.67
2022-12-05T00:14:06.506Z,8.70
2022-12-05T00:16:33.702Z,8.02
2022-12-05T00:19:02.485Z,8.18
2022-12-05T00:21:32.966Z,8.57
2022-12-05T00:24:00.912Z,8.69
2022-12-05T00:26:28.004Z,8.59
2022-12-05T00:28:56.428Z,8.59
2022-12-05T00:31:24.642Z,8.68
2022-12-05T00:33:52.221Z,8.57
2022-12-05T00:36:24.854Z,8.64
2022-12-05T00:38:52.493Z,8.85
2022-12-05T00:41:21.858Z,8.76
2022-12-05T00:43:49.072Z,8.91
2022-12-05T00:46:26.331Z,8.73
2022-12-05T00:48:54.340Z,8.64
2022-12-05T00:51:28.290Z,8.59
2022-12-05T00:53:57.939Z,8.34
2022-12-05T00:56:25.994Z,8.06
2022-12-05T00:58:54.481Z,8.18
2022-12-05T01:01:22.695Z,8.28
2022-12-05T01:03:55.185Z,8.64
2022-12-05T01:06:22.683Z,8.70
2022-12-05T01:08:49.770Z,8.57
2022-12-05T01:11:18.513Z,8.62
2022-12-05T01:13:45.701Z,8.79
2022-12-05T01:16:21.901Z,8.66
2022-12-05T01:18:49.091Z,8.66
2022-12-05T01:21:15.863Z,8.71
2022-12-05T01:23:42.489Z,8.67
2022-12-05T01:26:12.761Z,7.57
2022-12-05T01:28:40.315Z,7.41
2022-12-05T01:31:21.548Z,7.46
2022-12-05T01:33:48.941Z,7.46
2022-12-05T01:36:15.998Z,7.97
2022-12-05T01:38:43.179Z,8.16
2022-12-05T01:41:13.784Z,7.66
2022-12-05T01:44:06.423Z,8.13
2022-12-05T01:46:39.087Z,8.17
2022-12-05T01:49:09.627Z,8.44
2022-12-05T01:51:38.781Z,8.45
2022-12-05T01:54:06.513Z,8.42
2022-12-05T01:56:35.114Z,8.46
2022-12-05T01:59:03.902Z,7.97
2022-12-05T02:01:30.641Z,7.48
2022-12-05T02:03:59.211Z,7.46
2022-12-05T02:06:27.613Z,8.06
2022-12-05T02:08:54.825Z,8.25
2022-12-05T02:11:23.627Z,8.03
2022-12-05T02:14:08.623Z,8.25
2022-12-05T02:17:01.194Z,8.36
2022-12-05T02:20:03.516Z,8.31
2022-12-05T02:23:02.223Z,8.35
2022-12-05T02:25:37.549Z,8.35
2022-12-05T02:28:08.439Z,8.50
2022-12-05T02:30:41.594Z,7.55
2022-12-05T02:33:23.560Z,7.78
2022-12-05T02:35:54.230Z,8.21
2022-12-05T02:38:51.619Z,8.23
2022-12-05T02:41:39.459Z,7.31
2022-12-05T02:44:31.481Z,7.69
2022-12-05T02:47:00.187Z,7.74
2022-12-05T02:49:32.194Z,7.50
2022-12-05T02:52:02.137Z,7.61
2022-12-05T02:54:39.224Z,7.91
2022-12-05T02:57:07.487Z,8.11
2022-12-05T02:59:34.087Z,8.22
2022-12-05T03:02:00.673Z,8.22
2022-12-05T03:04:30.067Z,8.43
2022-12-05T03:07:12.328Z,8.35
2022-12-05T03:09:49.543Z,8.07
2022-12-05T03:12:20.617Z,8.19
2022-12-05T03:15:25.037Z,8.15
2022-12-05T03:17:57.630Z,8.11
2022-12-05T03:20:36.951Z,8.12
2022-12-05T03:23:09.651Z,8.30
2022-12-05T03:26:12.044Z,8.25
2022-12-05T03:28:54.510Z,8.56
2022-12-05T03:31:53.286Z,8.64
2022-12-05T03:34:43.823Z,8.58
2022-12-05T03:37:17.778Z,8.54
2022-12-05T03:39:53.285Z,8.41
2022-12-05T03:42:31.654Z,8.46
2022-12-05T03:45:03.311Z,8.42
2022-12-05T03:47:49.065Z,8.73
2022-12-05T03:50:26.783Z,8.74
2022-12-05T03:53:20.860Z,8.40
2022-12-05T03:55:57.170Z,8.53
2022-12-05T03:58:33.238Z,8.40
2022-12-05T04:01:02.691Z,8.55
2022-12-05T04:03:39.866Z,8.58
2022-12-05T04:06:31.956Z,8.37
2022-12-05T04:09:16.898Z,8.36
2022-12-05T04:11:50.919Z,8.40
2022-12-05T04:14:24.164Z,7.94
2022-12-05T04:17:05.791Z,7.82
2022-12-05T04:20:12.841Z,7.77
2022-12-05T04:22:40.210Z,8.13
2022-12-05T04:25:29.998Z,8.20
2022-12-05T04:28:21.266Z,7.46
2022-12-05T04:31:09.617Z,7.99
2022-12-05T04:33:56.937Z,8.23
2022-12-05T04:36:34.759Z,8.16
2022-12-05T04:39:16.063Z,8.28
2022-12-05T04:42:15.084Z,7.89
2022-12-05T04:44:53.069Z,7.88
2022-12-05T04:47:23.910Z,7.60
2022-12-05T04:49:54.227Z,8.30
2022-12-05T04:52:22.496Z,8.39
2022-12-05T04:54:58.966Z,8.19
2022-12-05T04:57:33.726Z,8.37
2022-12-05T05:00:00.847Z,8.44
2022-12-05T05:02:42.658Z,8.35
2022-12-05T05:05:14.107Z,8.79
2022-12-05T05:07:46.511Z,8.61
2022-12-05T05:10:16.578Z,8.53
2022-12-05T05:12:43.257Z,8.59
2022-12-05T05:15:10.166Z,8.74
2022-12-05T05:17:36.817Z,8.66
2022-12-05T05:20:23.230Z,8.66
2022-12-05T05:22:59.355Z,8.54
2022-12-05T05:25:26.388Z,8.63
2022-12-05T05:27:55.809Z,8.32
2022-12-05T05:30:24.383Z,7.93
2022-12-05T05:32:51.632Z,7.67
2022-12-05T05:35:18.307Z,8.11
2022-12-05T05:37:44.988Z,8.41
2022-12-05T05:40:13.077Z,8.63
2022-12-05T05:42:47.573Z,8.22
2022-12-05T05:45:15.506Z,8.05
2022-12-05T05:47:43.149Z,8.23
2022-12-05T05:50:12.113Z,8.33
2022-12-05T05:52:40.623Z,8.26
2022-12-05T05:55:08.780Z,8.43
2022-12-05T05:57:36.571Z,8.48
2022-12-05T06:00:06.550Z,8.56
2022-12-05T06:02:34.760Z,8.63
2022-12-05T06:05:02.191Z,8.44
2022-12-05T06:07:29.835Z,8.44
2022-12-05T06:09:57.237Z,8.31
2022-12-05T06:12:24.519Z,8.53
2022-12-05T06:14:51.666Z,8.35
2022-12-05T06:17:18.533Z,8.50
2022-12-05T06:19:46.097Z,8.59
2022-12-05T06:22:12.725Z,8.46
2022-12-05T06:24:39.451Z,8.49
2022-12-05T06:27:06.142Z,8.58
2022-12-05T06:29:34.205Z,8.54
2022-12-05T06:32:01.776Z,8.61
2022-12-05T06:34:28.602Z,8.62
2022-12-05T06:36:55.216Z,8.80
2022-12-05T06:39:21.926Z,8.88
2022-12-05T06:41:48.669Z,9.03
2022-12-05T06:44:15.350Z,9.03
2022-12-05T06:46:41.981Z,8.75
2022-12-05T06:49:10.615Z,8.40
2022-12-05T06:51:37.214Z,8.88
2022-12-05T06:54:03.972Z,8.72
2022-12-05T06:56:30.700Z,8.69
2022-12-05T06:58:57.344Z,8.76
2022-12-05T07:01:41.658Z,8.68
2022-12-05T07:04:08.482Z,8.45
2022-12-05T07:06:35.630Z,8.76
2022-12-05T07:09:04.105Z,8.69
2022-12-05T07:11:30.886Z,8.47
2022-12-05T07:13:57.718Z,8.71
2022-12-05T07:16:24.754Z,8.67
2022-12-05T07:18:51.529Z,9.04
2022-12-05T07:21:18.764Z,8.98
2022-12-05T07:23:46.676Z,8.94
2022-12-05T07:26:16.532Z,8.85
2022-12-05T07:28:43.182Z,8.46
2022-12-05T07:31:12.954Z,8.41
2022-12-05T07:33:40.250Z,8.68
2022-12-05T07:36:15.372Z,8.87
2022-12-05T07:38:42.965Z,9.00
2022-12-05T07:41:31.048Z,8.73
2022-12-05T07:43:59.412Z,8.83
2022-12-05T07:46:28.172Z,8.91
2022-12-05T07:48:55.163Z,8.82
2022-12-05T07:51:22.265Z,9.24
2022-12-05T07:53:49.108Z,9.39
2022-12-05T07:56:17.288Z,8.52
2022-12-05T07:58:48.793Z,8.60
2022-12-05T08:01:33.949Z,9.00
2022-12-05T08:04:00.704Z,9.03
2022-12-05T08:06:29.268Z,9.14
2022-12-05T08:08:56.636Z,8.65
2022-12-05T08:11:26.742Z,8.90
2022-12-05T08:13:54.442Z,8.34
2022-12-05T08:16:23.658Z,8.79
2022-12-05T08:18:58.184Z,8.42
2022-12-05T08:21:27.649Z,8.86
2022-12-05T08:23:54.984Z,9.43
2022-12-05T08:26:25.144Z,9.15
2022-12-05T08:28:58.194Z,8.73
2022-12-05T08:31:28.952Z,8.88
2022-12-05T08:33:59.265Z,8.71
2022-12-05T08:36:28.037Z,8.50
2022-12-05T08:39:00.414Z,8.94
2022-12-05T08:41:30.109Z,8.24
2022-12-05T08:43:59.258Z,8.52
2022-12-05T08:46:26.242Z,9.10
2022-12-05T08:48:52.889Z,9.35
2022-12-05T08:51:19.469Z,9.26
2022-12-05T08:53:46.294Z,8.81
2022-12-05T08:56:13.093Z,8.88
2022-12-05T08:58:41.031Z,8.96
2022-12-05T09:01:13.405Z,8.13
2022-12-05T09:03:47.401Z,8.21
2022-12-05T09:06:17.796Z,8.87
2022-12-05T09:08:45.119Z,9.05
2022-12-05T09:11:13.540Z,9.34
2022-12-05T09:13:40.389Z,9.00
2022-12-05T09:16:08.827Z,9.45
2022-12-05T09:18:35.931Z,9.35
2022-12-05T09:21:09.931Z,9.03
2022-12-05T09:23:36.696Z,8.93
2022-12-05T09:26:07.151Z,9.40
2022-12-05T09:28:35.292Z,9.14
2022-12-05T09:31:04.819Z,8.42
2022-12-05T09:33:34.153Z,8.80
2022-12-05T09:36:14.123Z,9.13
2022-12-05T09:38:41.305Z,9.11
2022-12-05T09:41:47.835Z,8.24
2022-12-05T09:44:46.548Z,7.66
2022-12-05T09:47:28.191Z,8.82
2022-12-05T09:50:03.118Z,8.97
2022-12-05T09:52:39.237Z,9.44
2022-12-05T09:55:13.165Z,8.93
2022-12-05T09:57:48.461Z,9.48
2022-12-05T10:00:15.762Z,9.66
2022-12-05T10:02:50.747Z,8.96
2022-12-05T10:05:43.220Z,9.33
2022-12-05T10:08:12.834Z,7.98
2022-12-05T10:10:55.045Z,8.22
2022-12-05T10:13:21.618Z,7.85
2022-12-05T10:15:55.684Z,8.22
2022-12-05T10:18:44.796Z,8.85
2022-12-05T10:21:49.808Z,8.89
2022-12-05T10:24:22.492Z,9.14
2022-12-05T10:26:57.689Z,9.35
2022-12-05T10:29:48.138Z,9.04
2022-12-05T10:32:30.297Z,9.20
2022-12-05T10:35:14.292Z,9.34
2022-12-05T10:37:45.715Z,9.40
2022-12-05T10:40:14.078Z,9.54
2022-12-05T10:42:40.922Z,9.06
2022-12-05T10:45:14.383Z,9.35
2022-12-05T10:47:41.034Z,9.55
2022-12-05T10:50:21.812Z,8.68
2022-12-05T10:52:49.100Z,8.62
2022-12-05T10:55:17.991Z,9.22
2022-12-05T10:57:51.943Z,9.54
2022-12-05T11:00:23.911Z,9.67
2022-12-05T11:02:51.797Z,8.51
2022-12-05T11:05:28.938Z,9.13
2022-12-05T11:07:58.487Z,9.02
2022-12-05T11:10:37.914Z,9.75
2022-12-05T11:13:16.698Z,9.85
2022-12-05T11:15:52.220Z,9.74
2022-12-05T11:18:24.902Z,9.52
2022-12-05T11:20:52.488Z,9.45
2022-12-05T11:23:25.779Z,9.58
2022-12-05T11:25:53.372Z,10.04
2022-12-05T11:28:19.889Z,10.19
2022-12-05T11:30:58.665Z,10.05
2022-12-05T11:33:27.653Z,10.08
2022-12-05T11:36:04.365Z,10.08
2022-12-05T11:38:34.881Z,10.01
2022-12-05T11:41:38.972Z,9.82
2022-12-05T11:44:32.834Z,8.62
2022-12-05T11:47:17.986Z,9.69
2022-12-05T11:50:22.862Z,10.02
2022-12-05T11:53:05.306Z,10.19
2022-12-05T11:55:57.957Z,9.00
2022-12-05T11:58:46.881Z,8.89
2022-12-05T12:01:45.228Z,8.44
2022-12-05T12:04:53.841Z,8.60
2022-12-05T12:07:32.563Z,9.44
2022-12-05T12:10:20.641Z,9.75
2022-12-05T12:13:23.087Z,8.68
2022-12-05T12:16:17.832Z,9.23
2022-12-05T12:19:10.541Z,9.41
2022-12-05T12:21:43.129Z,9.55
2022-12-05T12:24:33.831Z,9.36
2022-12-05T12:27:24.979Z,8.47
2022-12-05T12:30:08.134Z,9.19
2022-12-05T12:32:53.329Z,9.56
2022-12-05T12:35:48.386Z,9.75
2022-12-05T12:38:35.807Z,9.82
2022-12-05T12:41:34.564Z,9.79
2022-12-05T12:44:10.330Z,10.12
2022-12-05T12:46:42.980Z,10.34
2022-12-05T12:49:34.295Z,10.40
2022-12-05T12:52:17.184Z,9.81
2022-12-05T12:55:13.183Z,10.02
2022-12-05T12:57:51.646Z,9.99
2022-12-05T13:00:24.513Z,9.83
2022-12-05T13:03:03.762Z,9.16
2022-12-05T13:05:39.267Z,9.17
2022-12-05T13:08:16.257Z,8.87
2022-12-05T13:10:45.482Z,9.54
2022-12-05T13:13:25.626Z,9.32
2022-12-05T13:15:56.990Z,9.72
2022-12-05T13:18:25.704Z,9.95
2022-12-05T13:20:58.203Z,9.02
2022-12-05T13:23:28.915Z,9.59
2022-12-05T13:25:58.556Z,9.37
2022-12-05T13:28:29.950Z,8.41
2022-12-05T13:30:58.060Z,9.06
2022-12-05T13:33:27.362Z,8.88
2022-12-05T13:36:21.897Z,9.28
2022-12-05T13:39:07.053Z,9.22
2022-12-05T13:42:04.469Z,8.46
2022-12-05T13:44:56.854Z,8.80
2022-12-05T13:47:45.489Z,9.47
2022-12-05T13:50:34.297Z,9.75
2022-12-05T13:53:32.476Z,9.18
2022-12-05T13:56:24.555Z,8.64
2022-12-05T13:58:52.618Z,9.01
2022-12-05T14:01:47.719Z,8.89
2022-12-05T14:04:43.395Z,8.94
2022-12-05T14:07:11.191Z,8.23
2022-12-05T14:09:53.796Z,8.34
2022-12-05T14:12:20.379Z,8.68
2022-12-05T14:14:56.246Z,8.92
2022-12-05T14:17:44.582Z,8.46
2022-12-05T14:20:58.864Z,8.08
2022-12-05T14:23:34.182Z,8.60
2022-12-05T14:26:32.137Z,8.83
2022-12-05T14:28:58.692Z,8.18
2022-12-05T14:31:38.797Z,8.37
2022-12-05T14:34:30.222Z,8.57
2022-12-05T14:36:59.637Z,8.96
2022-12-05T14:39:52.134Z,8.82
2022-12-05T14:42:30.866Z,7.94
2022-12-05T14:45:01.008Z,8.63
2022-12-05T14:47:32.613Z,8.90
2022-12-05T14:50:23.361Z,8.25
2022-12-05T14:53:15.254Z,7.14
2022-12-05T14:55:45.541Z,7.45
2022-12-05T14:58:38.086Z,8.77
2022-12-05T15:01:13.066Z,8.96
2022-12-05T15:03:59.866Z,9.20
2022-12-05T15:06:26.961Z,8.90
2022-12-05T15:09:14.501Z,8.43
2022-12-05T15:11:43.748Z,9.08
2022-12-05T15:14:15.609Z,8.71
2022-12-05T15:16:46.335Z,8.63
2022-12-05T15:19:19.267Z,8.66
2022-12-05T15:21:58.170Z,8.82
2022-12-05T15:24:25.206Z,9.21
2022-12-05T15:26:56.828Z,9.40
2022-12-05T15:29:25.572Z,9.26
2022-12-05T15:31:56.912Z,9.35
2022-12-05T15:34:45.496Z,8.69
2022-12-05T15:37:49.864Z,8.34
2022-12-05T15:40:22.108Z,8.50
2022-12-05T15:42:57.689Z,8.94
2022-12-05T15:45:29.330Z,8.95
2022-12-05T15:48:10.506Z,8.46
2022-12-05T15:50:41.747Z,8.61
2022-12-05T15:53:15.537Z,8.58
2022-12-05T15:56:05.122Z,8.91
2022-12-05T15:58:36.855Z,8.68
2022-12-05T16:01:12.599Z,8.73
2022-12-05T16:03:54.207Z,8.95
2022-12-05T16:06:38.857Z,8.43
2022-12-05T16:09:11.527Z,8.33
2022-12-05T16:11:39.988Z,8.73
2022-12-05T16:14:08.401Z,8.79
2022-12-05T16:16:38.623Z,9.07
2022-12-05T16:19:14.692Z,9.31
2022-12-05T16:22:03.491Z,9.23
2022-12-05T16:24:32.099Z,9.40
2022-12-05T16:27:07.374Z,9.55
2022-12-05T16:29:35.093Z,9.20
2022-12-05T16:32:04.789Z,9.40
2022-12-05T16:34:33.971Z,9.44
2022-12-05T16:37:00.911Z,9.20
2022-12-05T16:39:28.488Z,8.94
2022-12-05T16:41:55.605Z,9.38
2022-12-05T16:44:31.850Z,9.28
2022-12-05T16:46:58.712Z,9.33
2022-12-05T16:49:31.638Z,9.04
2022-12-05T16:52:11.778Z,8.84
2022-12-05T16:54:38.456Z,9.01
2022-12-05T16:57:05.427Z,9.04
2022-12-05T16:59:37.518Z,9.26
2022-12-05T17:02:07.557Z,9.47
2022-12-05T17:04:34.275Z,8.08
2022-12-05T17:07:00.867Z,8.54
2022-12-05T17:09:27.587Z,9.09
2022-12-05T17:12:03.713Z,9.07
2022-12-05T17:14:30.319Z,8.83
2022-12-05T17:16:57.004Z,8.32
2022-12-05T17:19:24.487Z,8.14
2022-12-05T17:21:51.123Z,8.63
2022-12-05T17:24:19.141Z,8.77
2022-12-05T17:26:47.336Z,8.37
2022-12-05T17:29:14.048Z,7.04
2022-12-05T17:31:40.845Z,6.70
2022-12-05T17:34:16.422Z,7.68
2022-12-05T17:36:46.207Z,8.43
2022-12-05T17:39:12.877Z,7.85
2022-12-05T17:41:39.546Z,7.40
2022-12-05T17:44:07.078Z,7.84
2022-12-05T17:46:33.808Z,7.83
2022-12-05T17:49:00.524Z,8.50
2022-12-05T17:51:27.460Z,8.45
2022-12-05T17:53:54.564Z,8.55
2022-12-05T17:56:21.713Z,9.04
2022-12-05T17:58:48.465Z,8.11
2022-12-05T18:01:18.132Z,7.37
2022-12-05T18:03:44.883Z,7.87
2022-12-05T18:06:11.832Z,7.98
2022-12-05T18:08:39.971Z,8.61
2022-12-05T18:11:07.017Z,9.00
2022-12-05T18:13:34.513Z,7.93
2022-12-05T18:16:03.071Z,8.20
2022-12-05T18:18:29.872Z,8.59
2022-12-05T18:21:08.325Z,8.58
2022-12-05T18:23:36.523Z,9.13
2022-12-05T18:26:04.185Z,9.44
2022-12-05T18:28:30.823Z,9.40
2022-12-05T18:31:42.748Z,9.37
2022-12-05T18:34:09.419Z,9.35
2022-12-05T18:39:24.744Z,9.52
2022-12-05T18:41:51.349Z,9.58
2022-12-05T18:44:17.972Z,9.69
2022-12-05T18:46:44.597Z,9.67
2022-12-05T18:49:12.991Z,8.78
2022-12-05T18:51:40.403Z,8.94
2022-12-05T18:54:07.092Z,9.02
2022-12-05T18:56:35.814Z,8.93
2022-12-05T18:59:05.397Z,9.24
2022-12-05T19:01:34.632Z,9.43
2022-12-05T19:04:03.533Z,9.32
2022-12-05T19:06:32.993Z,8.99
2022-12-05T19:09:06.255Z,9.02
2022-12-05T19:11:33.197Z,9.60
2022-12-05T19:14:02.472Z,9.59
2022-12-05T19:16:30.964Z,9.66
2022-12-05T19:19:00.175Z,9.71
2022-12-05T19:21:30.266Z,9.48
2022-12-05T19:23:57.462Z,9.78
2022-12-05T19:26:25.165Z,9.69
2022-12-05T19:28:52.092Z,9.82
2022-12-05T19:31:23.999Z,9.44
2022-12-05T19:33:53.436Z,9.53
2022-12-05T19:36:28.972Z,9.29
2022-12-05T19:38:56.173Z,9.34
2022-12-05T19:41:26.449Z,9.49
2022-12-05T19:43:54.055Z,9.21
2022-12-05T19:46:25.785Z,9.36
2022-12-05T19:48:53.374Z,9.15
2022-12-05T19:51:20.141Z,8.66
2022-12-05T19:53:47.721Z,8.50
2022-12-05T19:56:20.334Z,9.12
2022-12-05T19:58:48.500Z,9.41
2022-12-05T20:01:21.497Z,9.53
2022-12-05T20:04:00.313Z,9.45
2022-12-05T20:06:33.709Z,9.53
2022-12-05T20:09:01.502Z,9.68
2022-12-05T20:11:31.779Z,9.65
2022-12-05T20:14:00.467Z,9.61
2022-12-05T20:16:28.654Z,9.51
2022-12-05T20:19:00.085Z,8.53
2022-12-05T20:21:29.817Z,9.32
2022-12-05T20:23:57.939Z,9.45
2022-12-05T20:26:30.604Z,9.48
2022-12-05T20:28:58.769Z,9.49
2022-12-05T20:31:29.760Z,9.34
2022-12-05T20:33:56.506Z,9.41
2022-12-05T20:36:26.272Z,9.48
2022-12-05T20:38:58.207Z,9.62
2022-12-05T20:41:25.615Z,9.58
2022-12-05T20:43:57.678Z,9.44
2022-12-05T20:46:25.196Z,9.28
2022-12-05T20:48:53.205Z,9.21
2022-12-05T20:51:23.118Z,9.01
2022-12-05T20:53:50.448Z,9.32
2022-12-05T20:56:20.257Z,9.01
2022-12-05T20:58:49.484Z,9.41
2022-12-05T21:01:17.970Z,9.53
2022-12-05T21:03:47.134Z,9.56
2022-12-05T21:06:19.640Z,9.44
2022-12-05T21:08:46.290Z,9.50
2022-12-05T21:11:13.878Z,9.44
2022-12-05T21:13:41.351Z,9.37
2022-12-05T21:16:11.262Z,9.29
2022-12-05T21:18:38.716Z,9.24
2022-12-05T21:21:14.628Z,9.26
2022-12-05T21:23:42.702Z,9.24
2022-12-05T21:26:13.223Z,9.47
2022-12-05T21:28:40.467Z,9.44
2022-12-05T21:31:11.253Z,9.55
2022-12-05T21:33:39.062Z,9.47
2022-12-05T21:36:07.427Z,9.45
2022-12-05T21:38:34.798Z,9.51
2022-12-05T21:41:03.238Z,9.41
2022-12-05T21:43:30.141Z,9.41
2022-12-05T21:45:57.212Z,9.53
2022-12-05T21:48:24.601Z,9.24
2022-12-05T21:50:51.885Z,9.16
2022-12-05T21:53:19.283Z,9.27
2022-12-05T21:55:46.372Z,9.25
2022-12-05T21:58:13.652Z,9.23
2022-12-05T22:00:40.614Z,9.32
2022-12-05T22:03:07.688Z,9.17
2022-12-05T22:05:34.328Z,9.27
2022-12-05T22:08:05.988Z,9.30
2022-12-05T22:10:36.229Z,9.29
2022-12-05T22:13:03.266Z,9.27
2022-12-05T22:15:30.104Z,9.00
2022-12-05T22:17:56.707Z,9.09
2022-12-05T22:20:23.614Z,9.16
2022-12-05T22:22:50.329Z,9.20
2022-12-05T22:25:16.942Z,9.47
2022-12-05T22:27:43.584Z,9.24
2022-12-05T22:30:10.478Z,9.22
2022-12-05T22:32:37.080Z,9.29
2022-12-05T22:35:04.528Z,9.29
2022-12-05T22:37:31.636Z,9.26
2022-12-05T22:39:58.740Z,9.24
2022-12-05T22:42:28.671Z,9.33
2022-12-05T22:44:55.280Z,9.34
2022-12-05T22:47:21.914Z,9.29
2022-12-05T22:49:48.537Z,9.18
2022-12-05T22:52:15.440Z,9.15
2022-12-05T22:54:42.112Z,9.10
2022-12-05T22:57:08.719Z,9.20
2022-12-05T22:59:35.291Z,9.28
2022-12-05T23:02:01.858Z,9.29
2022-12-05T23:04:28.572Z,9.44
2022-12-05T23:06:55.262Z,9.30
2022-12-05T23:09:22.016Z,9.21
2022-12-05T23:11:51.661Z,9.11
2022-12-05T23:14:18.370Z,9.08
2022-12-05T23:16:45.258Z,9.07
2022-12-05T23:19:11.872Z,9.05
2022-12-05T23:21:40.350Z,9.12
2022-12-05T23:24:09.733Z,9.13
2022-12-05T23:26:42.160Z,9.11
2022-12-05T23:29:09.271Z,9.18
2022-12-05T23:31:36.091Z,9.16
2022-12-05T23:34:04.223Z,8.91
2022-12-05T23:36:32.993Z,8.76
2022-12-05T23:39:00.024Z,8.83
2022-12-05T23:41:27.523Z,9.06
2022-12-05T23:43:55.002Z,9.08
2022-12-05T23:46:24.431Z,8.98
2022-12-05T23:48:51.697Z,9.36
2022-12-05T23:51:23.991Z,8.09
2022-12-05T23:53:56.173Z,8.23
2022-12-05T23:56:25.726Z,8.87
2022-12-05T23:58:54.092Z,9.05
